Portada
METAR-TAF:

METAR-TAF

Aeropuertos :

Bella Coola, Columbia Británica, Canadá

latitud: 52-23N, longitud: 126-35W, altitud: 35 m

Observación

El informe se hizo hace 7 horas y 17 minutos, a las 01:00 UTC
Viento 15 kt del oeste con ráfagas de 22 kt
Temperatura 17°C
Humedad 34%
Presión 1025 hPa
Visibilidad: 24.1 km
Cielo nuboso a una altura de 19000 ft
Cielo cubierto a una altura de 22000 ft

METAR: CYBD 240100Z 27015G22KT 15SM BKN190 OVC220 17/01 A3027 RMK AS5CS3 HZ HALO LAST STFD OBS/NEXT 241300UTC/ SLP253

Hora: 01:17 (08:17 UTC)


TAF: falta

Observaciones y pronósticos meteorológicos de más de 4000 aeropuertos (mensajes METAR y TAF).

Los puntos amarillos y rojos representan las estaciones disponibles.

Ponga el ratón en el punto deseado para ver el nombre de la estación.

Haga clic para ver las observaciones y los pronósticos meteorológicos.

Para cambiar el mapa : haga clic en los botones verdes con una cruz de color negro para hacer un zoom, en el botón verde con un guión para alejar o en las flechas verdes para mapas adyacentes.


METAR-TAF: